Αρχική σελίδα
METAR-TAF:

METAR-TAF

Αεροδρόμια :

Nut Tree Airport

Vacaville, Καλιφόρνια, Ηνωμένες Πολιτείες Αμερικής

γεωγραφικό πλάτος: 38-22-40N, γεωγραφικό μήκος: 121-57-27W, υψόμετρο: 34 μ

Παρών καιρός

Η αναφορά έγινε 51 λεπτά πριν, στις 06:53 UTC
Άνεμος 5 kt από ΝΔ
Θερμοκρασία 19°C
Υγρασία 49%
Πίεση 1013 hPa
Ορατότητα: 16.1 χλμ
Καθαρός ουρανός

METAR: KVCB 220653Z AUTO 23005KT 10SM CLR 19/08 A2992 RMK AO2 SLP131 T01890083

Χρόνος: 00:44 (07:44 UTC)


TAF: λείπει

Μετεωρολογικές αναφορές και προγνώσεις για περισσότερα από 4000 αεροδρόμια (δελτία METAR και TAF).

Οι διαθέσιμοι σταθμοί απεικονίζονται στο χάρτη με κίτρινες και κόκκινες κουκκίδες.

Μετακινήστε το ποντίκι πάνω από τις κουκκίδες για να δείτε το όνομα του σταθμού.

Στη συνέχεια, κάντε κλικ για να δείτε τις μετεωρολογικές αναφορές και τις προγνώσεις καιρού.

Για να αλλάξετε το χάρτη: κάντε κλικ στα πράσινα κουμπιά με τον μαύρο σταυρό για να ζουμάρετε, στο πράσινο κουμπί με την παύλα για να αφαιρέσετε το ζουμ ή στα πράσινα βέλη για να αντιπαραβάλλετε χάρτες.


METAR-TAF: